sensor_id;sensor_type;location;lat;lon;timestamp;temperature;humidity
20155;DHT22;10238;49.556;10.956;2022-08-19T00:00:24;20.70;99.90
20155;DHT22;10238;49.556;10.956;2022-08-19T00:03:16;20.70;99.90
20155;DHT22;10238;49.556;10.956;2022-08-19T00:06:06;20.60;99.90
20155;DHT22;10238;49.556;10.956;2022-08-19T00:08:57;20.60;99.90
20155;DHT22;10238;49.556;10.956;2022-08-19T00:11:48;20.50;99.90
20155;DHT22;10238;49.556;10.956;2022-08-19T00:14:39;20.50;99.90
20155;DHT22;10238;49.556;10.956;2022-08-19T00:17:30;20.50;99.90
20155;DHT22;10238;49.556;10.956;2022-08-19T00:20:20;20.40;99.90
20155;DHT22;10238;49.556;10.956;2022-08-19T00:23:10;20.40;99.90
20155;DHT22;10238;49.556;10.956;2022-08-19T00:25:59;20.40;99.90
20155;DHT22;10238;49.556;10.956;2022-08-19T00:28:49;20.40;99.90
20155;DHT22;10238;49.556;10.956;2022-08-19T00:31:38;20.30;99.90
20155;DHT22;10238;49.556;10.956;2022-08-19T00:34:30;20.30;99.90
20155;DHT22;10238;49.556;10.956;2022-08-19T00:37:20;20.30;99.90
20155;DHT22;10238;49.556;10.956;2022-08-19T00:40:12;20.30;99.90
20155;DHT22;10238;49.556;10.956;2022-08-19T00:43:08;20.20;99.90
20155;DHT22;10238;49.556;10.956;2022-08-19T00:45:58;20.20;99.90
20155;DHT22;10238;49.556;10.956;2022-08-19T00:48:49;20.20;99.90
20155;DHT22;10238;49.556;10.956;2022-08-19T00:51:39;20.10;99.90
20155;DHT22;10238;49.556;10.956;2022-08-19T00:54:31;20.10;99.90
20155;DHT22;10238;49.556;10.956;2022-08-19T00:57:25;20.10;99.90
20155;DHT22;10238;49.556;10.956;2022-08-19T01:00:18;20.10;99.90
20155;DHT22;10238;49.556;10.956;2022-08-19T01:03:12;20.10;99.90
20155;DHT22;10238;49.556;10.956;2022-08-19T01:06:06;20.10;99.90
20155;DHT22;10238;49.556;10.956;2022-08-19T01:08:57;20.10;99.90
20155;DHT22;10238;49.556;10.956;2022-08-19T01:11:48;20.10;99.90
20155;DHT22;10238;49.556;10.956;2022-08-19T01:14:39;20.10;99.90
20155;DHT22;10238;49.556;10.956;2022-08-19T01:17:29;20.10;99.90
20155;DHT22;10238;49.556;10.956;2022-08-19T01:20:22;20.10;99.90
20155;DHT22;10238;49.556;10.956;2022-08-19T01:23:14;20.00;99.90
20155;DHT22;10238;49.556;10.956;2022-08-19T01:26:04;20.00;99.90
20155;DHT22;10238;49.556;10.956;2022-08-19T01:28:56;20.00;99.90
20155;DHT22;10238;49.556;10.956;2022-08-19T01:31:48;20.00;99.90
20155;DHT22;10238;49.556;10.956;2022-08-19T01:34:39;20.00;99.90
20155;DHT22;10238;49.556;10.956;2022-08-19T01:37:43;20.00;99.90
20155;DHT22;10238;49.556;10.956;2022-08-19T01:40:39;20.00;99.90
20155;DHT22;10238;49.556;10.956;2022-08-19T01:43:29;20.00;99.90
20155;DHT22;10238;49.556;10.956;2022-08-19T01:46:19;20.00;99.90
20155;DHT22;10238;49.556;10.956;2022-08-19T01:49:11;20.00;99.90
20155;DHT22;10238;49.556;10.956;2022-08-19T01:52:03;20.00;99.90
20155;DHT22;10238;49.556;10.956;2022-08-19T01:54:53;20.00;99.90
20155;DHT22;10238;49.556;10.956;2022-08-19T01:57:49;20.00;99.90
20155;DHT22;10238;49.556;10.956;2022-08-19T02:00:43;20.00;99.90
20155;DHT22;10238;49.556;10.956;2022-08-19T02:03:32;20.00;99.90
20155;DHT22;10238;49.556;10.956;2022-08-19T02:06:23;20.00;99.90
20155;DHT22;10238;49.556;10.956;2022-08-19T02:09:13;20.00;99.90
20155;DHT22;10238;49.556;10.956;2022-08-19T02:12:04;20.00;99.90
20155;DHT22;10238;49.556;10.956;2022-08-19T02:14:58;20.00;99.90
20155;DHT22;10238;49.556;10.956;2022-08-19T02:17:48;20.00;99.90
20155;DHT22;10238;49.556;10.956;2022-08-19T02:20:39;20.00;99.90
20155;DHT22;10238;49.556;10.956;2022-08-19T02:23:31;20.00;99.90
20155;DHT22;10238;49.556;10.956;2022-08-19T02:26:21;20.00;99.90
20155;DHT22;10238;49.556;10.956;2022-08-19T02:29:11;20.00;99.90
20155;DHT22;10238;49.556;10.956;2022-08-19T02:32:02;20.00;99.90
20155;DHT22;10238;49.556;10.956;2022-08-19T02:34:52;20.00;99.90
20155;DHT22;10238;49.556;10.956;2022-08-19T02:37:42;20.00;99.90
20155;DHT22;10238;49.556;10.956;2022-08-19T02:40:50;19.90;99.90
20155;DHT22;10238;49.556;10.956;2022-08-19T02:43:44;20.00;99.90
20155;DHT22;10238;49.556;10.956;2022-08-19T02:46:54;20.00;99.90
20155;DHT22;10238;49.556;10.956;2022-08-19T02:49:45;20.00;99.90
20155;DHT22;10238;49.556;10.956;2022-08-19T02:52:36;20.00;99.90
20155;DHT22;10238;49.556;10.956;2022-08-19T02:55:26;20.00;99.90
20155;DHT22;10238;49.556;10.956;2022-08-19T02:58:15;20.00;99.90
20155;DHT22;10238;49.556;10.956;2022-08-19T03:01:06;20.00;99.90
20155;DHT22;10238;49.556;10.956;2022-08-19T03:03:57;19.90;99.90
20155;DHT22;10238;49.556;10.956;2022-08-19T03:06:52;19.90;99.90
20155;DHT22;10238;49.556;10.956;2022-08-19T03:09:47;19.90;99.90
20155;DHT22;10238;49.556;10.956;2022-08-19T03:12:37;19.90;99.90
20155;DHT22;10238;49.556;10.956;2022-08-19T03:15:27;19.90;99.90
20155;DHT22;10238;49.556;10.956;2022-08-19T03:18:18;19.90;99.90
20155;DHT22;10238;49.556;10.956;2022-08-19T03:21:14;19.90;99.90
20155;DHT22;10238;49.556;10.956;2022-08-19T03:24:08;19.90;99.90
20155;DHT22;10238;49.556;10.956;2022-08-19T03:26:58;19.90;99.90
20155;DHT22;10238;49.556;10.956;2022-08-19T03:29:47;19.90;99.90
20155;DHT22;10238;49.556;10.956;2022-08-19T03:32:38;19.90;99.90
20155;DHT22;10238;49.556;10.956;2022-08-19T03:35:32;19.90;99.90
20155;DHT22;10238;49.556;10.956;2022-08-19T03:38:24;19.90;99.90
20155;DHT22;10238;49.556;10.956;2022-08-19T03:41:16;19.90;99.90
20155;DHT22;10238;49.556;10.956;2022-08-19T03:44:08;19.90;99.90
20155;DHT22;10238;49.556;10.956;2022-08-19T03:47:04;19.90;99.90
20155;DHT22;10238;49.556;10.956;2022-08-19T03:49:54;19.80;99.90
20155;DHT22;10238;49.556;10.956;2022-08-19T03:52:48;19.80;99.90
20155;DHT22;10238;49.556;10.956;2022-08-19T03:55:40;19.90;99.90
20155;DHT22;10238;49.556;10.956;2022-08-19T03:58:31;19.80;99.90
20155;DHT22;10238;49.556;10.956;2022-08-19T04:01:23;19.80;99.90
20155;DHT22;10238;49.556;10.956;2022-08-19T04:04:22;19.80;99.90
20155;DHT22;10238;49.556;10.956;2022-08-19T04:07:16;19.80;99.90
20155;DHT22;10238;49.556;10.956;2022-08-19T04:10:09;19.70;99.90
20155;DHT22;10238;49.556;10.956;2022-08-19T04:13:00;19.80;99.90
20155;DHT22;10238;49.556;10.956;2022-08-19T04:15:53;19.70;99.90
20155;DHT22;10238;49.556;10.956;2022-08-19T04:18:42;19.70;99.90
20155;DHT22;10238;49.556;10.956;2022-08-19T04:21:33;19.70;99.90
20155;DHT22;10238;49.556;10.956;2022-08-19T04:24:27;19.70;99.90
20155;DHT22;10238;49.556;10.956;2022-08-19T04:32:08;19.80;99.90
20155;DHT22;10238;49.556;10.956;2022-08-19T04:34:58;19.70;99.90
20155;DHT22;10238;49.556;10.956;2022-08-19T04:38:30;19.70;99.90
20155;DHT22;10238;49.556;10.956;2022-08-19T04:41:20;19.70;99.90
20155;DHT22;10238;49.556;10.956;2022-08-19T04:44:27;19.70;99.90
20155;DHT22;10238;49.556;10.956;2022-08-19T04:47:21;19.70;99.90
20155;DHT22;10238;49.556;10.956;2022-08-19T04:50:33;19.70;99.90
20155;DHT22;10238;49.556;10.956;2022-08-19T04:53:28;19.70;99.90
20155;DHT22;10238;49.556;10.956;2022-08-19T04:56:24;19.60;99.90
20155;DHT22;10238;49.556;10.956;2022-08-19T04:59:14;19.60;99.90
20155;DHT22;10238;49.556;10.956;2022-08-19T05:02:07;19.60;99.90
20155;DHT22;10238;49.556;10.956;2022-08-19T05:04:59;19.60;99.90
20155;DHT22;10238;49.556;10.956;2022-08-19T05:07:48;19.60;99.90
20155;DHT22;10238;49.556;10.956;2022-08-19T05:10:40;19.60;99.90
20155;DHT22;10238;49.556;10.956;2022-08-19T05:13:29;19.70;99.90
20155;DHT22;10238;49.556;10.956;2022-08-19T05:16:23;19.60;99.90
20155;DHT22;10238;49.556;10.956;2022-08-19T05:19:13;19.70;99.90
20155;DHT22;10238;49.556;10.956;2022-08-19T05:22:22;19.70;99.90
20155;DHT22;10238;49.556;10.956;2022-08-19T05:25:23;19.70;99.90
20155;DHT22;10238;49.556;10.956;2022-08-19T05:28:13;19.70;99.90
20155;DHT22;10238;49.556;10.956;2022-08-19T05:31:02;19.80;99.90
20155;DHT22;10238;49.556;10.956;2022-08-19T05:33:51;19.80;99.90
20155;DHT22;10238;49.556;10.956;2022-08-19T05:36:44;19.80;99.90
20155;DHT22;10238;49.556;10.956;2022-08-19T05:39:36;19.80;99.90
20155;DHT22;10238;49.556;10.956;2022-08-19T05:42:28;19.80;99.90
20155;DHT22;10238;49.556;10.956;2022-08-19T05:45:18;19.80;99.90
20155;DHT22;10238;49.556;10.956;2022-08-19T05:48:08;19.80;99.90
20155;DHT22;10238;49.556;10.956;2022-08-19T05:51:03;19.90;99.90
20155;DHT22;10238;49.556;10.956;2022-08-19T05:53:54;19.90;99.90
20155;DHT22;10238;49.556;10.956;2022-08-19T05:56:45;20.00;99.90
20155;DHT22;10238;49.556;10.956;2022-08-19T05:59:36;20.00;99.90
20155;DHT22;10238;49.556;10.956;2022-08-19T06:02:26;20.10;99.90
20155;DHT22;10238;49.556;10.956;2022-08-19T06:05:15;20.10;99.90
20155;DHT22;10238;49.556;10.956;2022-08-19T06:08:05;20.20;99.90
20155;DHT22;10238;49.556;10.956;2022-08-19T06:10:55;20.20;99.90
20155;DHT22;10238;49.556;10.956;2022-08-19T06:13:47;20.30;99.90
20155;DHT22;10238;49.556;10.956;2022-08-19T06:16:46;20.40;99.90
20155;DHT22;10238;49.556;10.956;2022-08-19T06:19:35;20.50;99.90
20155;DHT22;10238;49.556;10.956;2022-08-19T06:22:28;20.60;99.90
20155;DHT22;10238;49.556;10.956;2022-08-19T06:25:17;20.70;99.90
20155;DHT22;10238;49.556;10.956;2022-08-19T06:28:07;20.70;99.90
20155;DHT22;10238;49.556;10.956;2022-08-19T06:31:07;20.80;99.90
20155;DHT22;10238;49.556;10.956;2022-08-19T06:33:56;20.80;99.90
20155;DHT22;10238;49.556;10.956;2022-08-19T06:36:47;20.90;99.90
20155;DHT22;10238;49.556;10.956;2022-08-19T06:39:39;20.90;99.90
20155;DHT22;10238;49.556;10.956;2022-08-19T06:42:30;21.00;99.90
20155;DHT22;10238;49.556;10.956;2022-08-19T06:45:22;21.00;99.90
20155;DHT22;10238;49.556;10.956;2022-08-19T06:48:23;21.10;99.90
20155;DHT22;10238;49.556;10.956;2022-08-19T06:51:16;21.20;99.90
20155;DHT22;10238;49.556;10.956;2022-08-19T06:54:08;21.30;99.90
20155;DHT22;10238;49.556;10.956;2022-08-19T06:57:06;21.30;99.90
20155;DHT22;10238;49.556;10.956;2022-08-19T07:00:01;21.40;99.90
20155;DHT22;10238;49.556;10.956;2022-08-19T07:02:56;21.50;99.90
20155;DHT22;10238;49.556;10.956;2022-08-19T07:05:52;21.50;99.90
20155;DHT22;10238;49.556;10.956;2022-08-19T07:08:42;21.60;99.90
20155;DHT22;10238;49.556;10.956;2022-08-19T07:11:32;21.60;99.90
20155;DHT22;10238;49.556;10.956;2022-08-19T07:14:23;21.60;99.90
20155;DHT22;10238;49.556;10.956;2022-08-19T07:17:14;21.70;99.90
20155;DHT22;10238;49.556;10.956;2022-08-19T07:20:08;21.80;99.90
20155;DHT22;10238;49.556;10.956;2022-08-19T07:23:02;21.80;99.90
20155;DHT22;10238;49.556;10.956;2022-08-19T07:25:54;22.00;99.90
20155;DHT22;10238;49.556;10.956;2022-08-19T07:28:45;22.10;99.90
20155;DHT22;10238;49.556;10.956;2022-08-19T07:31:39;22.30;99.90
20155;DHT22;10238;49.556;10.956;2022-08-19T07:34:31;22.40;99.90
20155;DHT22;10238;49.556;10.956;2022-08-19T07:37:26;22.40;99.90
20155;DHT22;10238;49.556;10.956;2022-08-19T07:40:21;22.50;99.90
20155;DHT22;10238;49.556;10.956;2022-08-19T07:43:13;22.50;99.90
20155;DHT22;10238;49.556;10.956;2022-08-19T07:46:05;22.60;99.90
20155;DHT22;10238;49.556;10.956;2022-08-19T07:49:01;22.60;99.90
20155;DHT22;10238;49.556;10.956;2022-08-19T07:52:07;22.70;99.90
20155;DHT22;10238;49.556;10.956;2022-08-19T07:55:06;22.70;99.90
20155;DHT22;10238;49.556;10.956;2022-08-19T07:58:20;22.70;99.90
20155;DHT22;10238;49.556;10.956;2022-08-19T08:01:12;22.80;99.90
20155;DHT22;10238;49.556;10.956;2022-08-19T08:04:04;22.80;99.90
20155;DHT22;10238;49.556;10.956;2022-08-19T08:07:10;22.80;99.90
20155;DHT22;10238;49.556;10.956;2022-08-19T08:10:18;22.80;99.90
20155;DHT22;10238;49.556;10.956;2022-08-19T08:13:10;22.80;99.90
20155;DHT22;10238;49.556;10.956;2022-08-19T08:16:02;22.80;99.90
20155;DHT22;10238;49.556;10.956;2022-08-19T08:18:57;22.80;99.90
20155;DHT22;10238;49.556;10.956;2022-08-19T08:21:51;22.80;99.90
20155;DHT22;10238;49.556;10.956;2022-08-19T08:24:41;22.90;99.90
20155;DHT22;10238;49.556;10.956;2022-08-19T08:27:31;22.90;99.90
20155;DHT22;10238;49.556;10.956;2022-08-19T08:30:22;23.00;99.90
20155;DHT22;10238;49.556;10.956;2022-08-19T08:33:20;22.90;99.90
20155;DHT22;10238;49.556;10.956;2022-08-19T08:36:21;22.90;99.90
20155;DHT22;10238;49.556;10.956;2022-08-19T08:39:13;23.00;99.90
20155;DHT22;10238;49.556;10.956;2022-08-19T08:42:08;23.00;99.90
20155;DHT22;10238;49.556;10.956;2022-08-19T08:45:10;23.10;99.90
20155;DHT22;10238;49.556;10.956;2022-08-19T08:48:10;23.20;99.90
20155;DHT22;10238;49.556;10.956;2022-08-19T08:51:15;23.40;99.90
20155;DHT22;10238;49.556;10.956;2022-08-19T08:54:11;23.50;99.90
20155;DHT22;10238;49.556;10.956;2022-08-19T08:57:10;23.60;99.90
20155;DHT22;10238;49.556;10.956;2022-08-19T09:00:07;23.60;99.90
20155;DHT22;10238;49.556;10.956;2022-08-19T09:03:04;23.70;99.90
20155;DHT22;10238;49.556;10.956;2022-08-19T09:06:02;23.70;99.90
20155;DHT22;10238;49.556;10.956;2022-08-19T09:09:04;23.70;99.90
20155;DHT22;10238;49.556;10.956;2022-08-19T09:12:08;23.80;99.90
20155;DHT22;10238;49.556;10.956;2022-08-19T09:15:14;23.90;99.90
20155;DHT22;10238;49.556;10.956;2022-08-19T09:18:20;23.80;99.90
20155;DHT22;10238;49.556;10.956;2022-08-19T09:21:10;23.80;99.90
20155;DHT22;10238;49.556;10.956;2022-08-19T09:24:01;23.80;99.90
20155;DHT22;10238;49.556;10.956;2022-08-19T09:26:51;23.90;99.90
20155;DHT22;10238;49.556;10.956;2022-08-19T09:29:40;23.80;99.90
20155;DHT22;10238;49.556;10.956;2022-08-19T09:32:29;23.80;99.90
20155;DHT22;10238;49.556;10.956;2022-08-19T09:35:20;23.80;99.90
20155;DHT22;10238;49.556;10.956;2022-08-19T09:38:11;23.80;99.90
20155;DHT22;10238;49.556;10.956;2022-08-19T09:41:05;23.70;99.90
20155;DHT22;10238;49.556;10.956;2022-08-19T09:43:57;23.70;99.90
20155;DHT22;10238;49.556;10.956;2022-08-19T09:46:47;23.70;99.90
20155;DHT22;10238;49.556;10.956;2022-08-19T09:49:37;23.60;99.90
20155;DHT22;10238;49.556;10.956;2022-08-19T09:52:27;23.60;99.90
20155;DHT22;10238;49.556;10.956;2022-08-19T09:55:19;23.50;99.90
20155;DHT22;10238;49.556;10.956;2022-08-19T09:58:15;23.50;99.90
20155;DHT22;10238;49.556;10.956;2022-08-19T10:01:05;23.40;99.90
20155;DHT22;10238;49.556;10.956;2022-08-19T10:03:58;23.40;99.90
20155;DHT22;10238;49.556;10.956;2022-08-19T10:06:55;23.40;99.90
20155;DHT22;10238;49.556;10.956;2022-08-19T10:09:46;23.40;99.90
20155;DHT22;10238;49.556;10.956;2022-08-19T10:12:36;23.40;99.90
20155;DHT22;10238;49.556;10.956;2022-08-19T10:15:27;23.40;99.90
20155;DHT22;10238;49.556;10.956;2022-08-19T10:18:17;23.30;99.90
20155;DHT22;10238;49.556;10.956;2022-08-19T10:21:11;23.30;99.90
20155;DHT22;10238;49.556;10.956;2022-08-19T10:24:04;23.30;99.90
20155;DHT22;10238;49.556;10.956;2022-08-19T10:26:57;23.30;99.90
20155;DHT22;10238;49.556;10.956;2022-08-19T10:29:47;23.30;99.90
20155;DHT22;10238;49.556;10.956;2022-08-19T10:32:38;23.30;99.90
20155;DHT22;10238;49.556;10.956;2022-08-19T10:35:33;23.30;99.90
20155;DHT22;10238;49.556;10.956;2022-08-19T10:38:43;23.20;99.90
20155;DHT22;10238;49.556;10.956;2022-08-19T10:41:40;23.30;99.90
20155;DHT22;10238;49.556;10.956;2022-08-19T10:44:32;23.30;99.90
20155;DHT22;10238;49.556;10.956;2022-08-19T10:47:23;23.30;99.90
20155;DHT22;10238;49.556;10.956;2022-08-19T10:50:19;23.30;99.90
20155;DHT22;10238;49.556;10.956;2022-08-19T10:53:28;23.30;99.90
20155;DHT22;10238;49.556;10.956;2022-08-19T10:56:17;23.40;99.90
20155;DHT22;10238;49.556;10.956;2022-08-19T10:59:25;23.40;99.90
20155;DHT22;10238;49.556;10.956;2022-08-19T11:02:22;23.40;99.90
20155;DHT22;10238;49.556;10.956;2022-08-19T11:05:12;23.40;99.90
20155;DHT22;10238;49.556;10.956;2022-08-19T11:08:06;23.40;99.90
20155;DHT22;10238;49.556;10.956;2022-08-19T11:11:11;23.40;99.90
20155;DHT22;10238;49.556;10.956;2022-08-19T11:14:01;23.40;99.90
20155;DHT22;10238;49.556;10.956;2022-08-19T11:16:51;23.40;99.90
20155;DHT22;10238;49.556;10.956;2022-08-19T11:19:43;23.40;99.90
20155;DHT22;10238;49.556;10.956;2022-08-19T11:22:32;23.50;99.90
20155;DHT22;10238;49.556;10.956;2022-08-19T11:25:29;23.50;99.90
20155;DHT22;10238;49.556;10.956;2022-08-19T11:28:18;23.60;99.90
20155;DHT22;10238;49.556;10.956;2022-08-19T11:31:10;23.50;99.90
20155;DHT22;10238;49.556;10.956;2022-08-19T11:34:03;23.50;99.90
20155;DHT22;10238;49.556;10.956;2022-08-19T11:36:55;23.50;99.90
20155;DHT22;10238;49.556;10.956;2022-08-19T11:39:46;23.50;99.90
20155;DHT22;10238;49.556;10.956;2022-08-19T11:42:44;23.50;99.90
20155;DHT22;10238;49.556;10.956;2022-08-19T11:45:45;23.50;99.90
20155;DHT22;10238;49.556;10.956;2022-08-19T11:48:36;23.40;99.90
20155;DHT22;10238;49.556;10.956;2022-08-19T11:51:33;23.40;99.90
20155;DHT22;10238;49.556;10.956;2022-08-19T11:54:26;23.40;99.90
20155;DHT22;10238;49.556;10.956;2022-08-19T11:57:15;23.40;99.90
20155;DHT22;10238;49.556;10.956;2022-08-19T12:00:07;23.30;99.90
20155;DHT22;10238;49.556;10.956;2022-08-19T12:02:57;23.30;99.90
20155;DHT22;10238;49.556;10.956;2022-08-19T12:05:47;23.30;99.90
20155;DHT22;10238;49.556;10.956;2022-08-19T12:08:37;23.20;99.90
20155;DHT22;10238;49.556;10.956;2022-08-19T12:11:28;23.20;99.90
20155;DHT22;10238;49.556;10.956;2022-08-19T12:14:28;23.10;99.90
20155;DHT22;10238;49.556;10.956;2022-08-19T12:17:22;23.00;99.90
20155;DHT22;10238;49.556;10.956;2022-08-19T12:20:16;22.90;99.90
20155;DHT22;10238;49.556;10.956;2022-08-19T12:23:07;22.80;99.90
20155;DHT22;10238;49.556;10.956;2022-08-19T12:25:59;22.70;99.90
20155;DHT22;10238;49.556;10.956;2022-08-19T12:28:49;22.60;99.90
20155;DHT22;10238;49.556;10.956;2022-08-19T12:31:41;22.50;99.90
20155;DHT22;10238;49.556;10.956;2022-08-19T12:34:34;22.40;99.90
20155;DHT22;10238;49.556;10.956;2022-08-19T12:37:25;22.30;99.90
20155;DHT22;10238;49.556;10.956;2022-08-19T12:40:15;22.30;99.90
20155;DHT22;10238;49.556;10.956;2022-08-19T12:43:06;22.20;99.90
20155;DHT22;10238;49.556;10.956;2022-08-19T12:45:55;22.10;99.90
20155;DHT22;10238;49.556;10.956;2022-08-19T12:48:45;22.00;99.90
20155;DHT22;10238;49.556;10.956;2022-08-19T12:51:42;22.00;99.90
20155;DHT22;10238;49.556;10.956;2022-08-19T12:54:32;22.00;99.90
20155;DHT22;10238;49.556;10.956;2022-08-19T12:57:22;22.00;99.90
20155;DHT22;10238;49.556;10.956;2022-08-19T13:00:21;22.00;99.90
20155;DHT22;10238;49.556;10.956;2022-08-19T13:03:11;21.90;99.90
20155;DHT22;10238;49.556;10.956;2022-08-19T13:06:01;21.90;99.90
20155;DHT22;10238;49.556;10.956;2022-08-19T13:08:51;21.90;99.90
20155;DHT22;10238;49.556;10.956;2022-08-19T13:11:46;21.90;99.90
20155;DHT22;10238;49.556;10.956;2022-08-19T13:14:35;21.90;99.90
20155;DHT22;10238;49.556;10.956;2022-08-19T13:17:25;21.90;99.90
20155;DHT22;10238;49.556;10.956;2022-08-19T13:20:17;21.90;99.90
20155;DHT22;10238;49.556;10.956;2022-08-19T13:23:09;21.90;99.90
20155;DHT22;10238;49.556;10.956;2022-08-19T13:26:02;21.80;99.90
20155;DHT22;10238;49.556;10.956;2022-08-19T13:28:53;21.90;99.90
20155;DHT22;10238;49.556;10.956;2022-08-19T13:32:03;21.90;99.90
20155;DHT22;10238;49.556;10.956;2022-08-19T13:35:11;21.80;99.90
20155;DHT22;10238;49.556;10.956;2022-08-19T13:38:03;21.80;99.90
20155;DHT22;10238;49.556;10.956;2022-08-19T13:41:04;21.80;99.90
20155;DHT22;10238;49.556;10.956;2022-08-19T13:44:04;21.80;99.90
20155;DHT22;10238;49.556;10.956;2022-08-19T13:46:55;21.80;99.90
20155;DHT22;10238;49.556;10.956;2022-08-19T13:49:53;21.80;99.90
20155;DHT22;10238;49.556;10.956;2022-08-19T13:52:42;21.80;99.90
20155;DHT22;10238;49.556;10.956;2022-08-19T13:55:33;21.80;99.90
20155;DHT22;10238;49.556;10.956;2022-08-19T13:58:24;21.80;99.90
20155;DHT22;10238;49.556;10.956;2022-08-19T14:01:19;21.80;99.90
20155;DHT22;10238;49.556;10.956;2022-08-19T14:04:13;21.80;99.90
20155;DHT22;10238;49.556;10.956;2022-08-19T14:07:03;21.80;99.90
20155;DHT22;10238;49.556;10.956;2022-08-19T14:09:53;21.70;99.90
20155;DHT22;10238;49.556;10.956;2022-08-19T14:12:42;21.70;99.90
20155;DHT22;10238;49.556;10.956;2022-08-19T14:15:34;21.70;99.90
20155;DHT22;10238;49.556;10.956;2022-08-19T14:18:24;21.70;99.90
20155;DHT22;10238;49.556;10.956;2022-08-19T14:21:21;21.70;99.90
20155;DHT22;10238;49.556;10.956;2022-08-19T14:24:12;21.60;99.90
20155;DHT22;10238;49.556;10.956;2022-08-19T14:27:02;21.60;99.90
20155;DHT22;10238;49.556;10.956;2022-08-19T14:29:52;21.50;99.90
20155;DHT22;10238;49.556;10.956;2022-08-19T14:32:44;21.50;99.90
20155;DHT22;10238;49.556;10.956;2022-08-19T14:35:33;21.40;99.90
20155;DHT22;10238;49.556;10.956;2022-08-19T14:38:23;21.40;99.90
20155;DHT22;10238;49.556;10.956;2022-08-19T14:41:20;21.40;99.90
20155;DHT22;10238;49.556;10.956;2022-08-19T14:44:11;21.40;99.90
20155;DHT22;10238;49.556;10.956;2022-08-19T14:47:01;21.30;99.90
20155;DHT22;10238;49.556;10.956;2022-08-19T14:49:52;21.30;99.90
20155;DHT22;10238;49.556;10.956;2022-08-19T14:52:41;21.20;99.90
20155;DHT22;10238;49.556;10.956;2022-08-19T14:55:33;21.20;99.90
20155;DHT22;10238;49.556;10.956;2022-08-19T14:58:23;21.20;99.90
20155;DHT22;10238;49.556;10.956;2022-08-19T15:01:18;21.10;99.90
20155;DHT22;10238;49.556;10.956;2022-08-19T15:04:08;21.00;99.90
20155;DHT22;10238;49.556;10.956;2022-08-19T15:06:59;21.00;99.90
20155;DHT22;10238;49.556;10.956;2022-08-19T15:09:51;20.90;99.90
20155;DHT22;10238;49.556;10.956;2022-08-19T15:12:41;20.90;99.90
20155;DHT22;10238;49.556;10.956;2022-08-19T15:15:36;20.80;99.90
20155;DHT22;10238;49.556;10.956;2022-08-19T15:18:26;20.70;99.90
20155;DHT22;10238;49.556;10.956;2022-08-19T15:21:16;20.70;99.90
20155;DHT22;10238;49.556;10.956;2022-08-19T15:24:15;20.60;99.90
20155;DHT22;10238;49.556;10.956;2022-08-19T15:27:05;20.60;99.90
20155;DHT22;10238;49.556;10.956;2022-08-19T15:29:55;20.60;99.90
20155;DHT22;10238;49.556;10.956;2022-08-19T15:32:48;20.50;99.90
20155;DHT22;10238;49.556;10.956;2022-08-19T15:35:40;20.40;99.90
20155;DHT22;10238;49.556;10.956;2022-08-19T15:38:29;20.40;99.90
20155;DHT22;10238;49.556;10.956;2022-08-19T15:41:29;20.30;99.90
20155;DHT22;10238;49.556;10.956;2022-08-19T15:44:20;20.20;99.90
20155;DHT22;10238;49.556;10.956;2022-08-19T15:47:09;20.20;99.90
20155;DHT22;10238;49.556;10.956;2022-08-19T15:49:59;20.10;99.90
20155;DHT22;10238;49.556;10.956;2022-08-19T15:52:50;20.10;99.90
20155;DHT22;10238;49.556;10.956;2022-08-19T15:55:42;20.10;99.90
20155;DHT22;10238;49.556;10.956;2022-08-19T15:58:36;20.00;99.90
20155;DHT22;10238;49.556;10.956;2022-08-19T16:01:42;20.00;99.90
20155;DHT22;10238;49.556;10.956;2022-08-19T16:05:06;20.00;99.90
20155;DHT22;10238;49.556;10.956;2022-08-19T16:08:14;19.90;99.90
20155;DHT22;10238;49.556;10.956;2022-08-19T16:11:04;19.90;99.90
20155;DHT22;10238;49.556;10.956;2022-08-19T16:13:55;19.90;99.90
20155;DHT22;10238;49.556;10.956;2022-08-19T16:16:45;19.80;99.90
20155;DHT22;10238;49.556;10.956;2022-08-19T16:19:35;19.80;99.90
20155;DHT22;10238;49.556;10.956;2022-08-19T16:22:28;19.80;99.90
20155;DHT22;10238;49.556;10.956;2022-08-19T16:25:18;19.80;99.90
20155;DHT22;10238;49.556;10.956;2022-08-19T16:28:09;19.70;99.90
20155;DHT22;10238;49.556;10.956;2022-08-19T16:31:00;19.70;99.90
20155;DHT22;10238;49.556;10.956;2022-08-19T16:33:49;19.60;99.90
20155;DHT22;10238;49.556;10.956;2022-08-19T16:36:39;19.60;99.90
20155;DHT22;10238;49.556;10.956;2022-08-19T16:39:30;19.60;99.90
20155;DHT22;10238;49.556;10.956;2022-08-19T16:42:20;19.60;99.90
20155;DHT22;10238;49.556;10.956;2022-08-19T16:45:10;19.50;99.90
20155;DHT22;10238;49.556;10.956;2022-08-19T16:48:01;19.50;99.90
20155;DHT22;10238;49.556;10.956;2022-08-19T16:50:51;19.50;99.90
20155;DHT22;10238;49.556;10.956;2022-08-19T16:53:42;19.50;99.90
20155;DHT22;10238;49.556;10.956;2022-08-19T16:56:32;19.40;99.90
20155;DHT22;10238;49.556;10.956;2022-08-19T16:59:22;19.40;99.90
20155;DHT22;10238;49.556;10.956;2022-08-19T17:02:12;19.40;99.90
20155;DHT22;10238;49.556;10.956;2022-08-19T17:05:03;19.40;99.90
20155;DHT22;10238;49.556;10.956;2022-08-19T17:07:53;19.30;99.90
20155;DHT22;10238;49.556;10.956;2022-08-19T17:10:44;19.30;99.90
20155;DHT22;10238;49.556;10.956;2022-08-19T17:13:54;19.20;99.90
20155;DHT22;10238;49.556;10.956;2022-08-19T17:16:45;19.30;99.90
20155;DHT22;10238;49.556;10.956;2022-08-19T17:19:36;19.20;99.90
20155;DHT22;10238;49.556;10.956;2022-08-19T17:22:29;19.20;99.90
20155;DHT22;10238;49.556;10.956;2022-08-19T17:25:18;19.20;99.90
20155;DHT22;10238;49.556;10.956;2022-08-19T17:28:09;19.20;99.90
20155;DHT22;10238;49.556;10.956;2022-08-19T17:31:02;19.20;99.90
20155;DHT22;10238;49.556;10.956;2022-08-19T17:34:07;19.10;99.90
20155;DHT22;10238;49.556;10.956;2022-08-19T17:37:04;19.10;99.90
20155;DHT22;10238;49.556;10.956;2022-08-19T17:39:55;19.10;99.90
20155;DHT22;10238;49.556;10.956;2022-08-19T17:42:45;19.10;99.90
20155;DHT22;10238;49.556;10.956;2022-08-19T17:45:35;19.10;99.90
20155;DHT22;10238;49.556;10.956;2022-08-19T17:52:10;19.00;99.90
20155;DHT22;10238;49.556;10.956;2022-08-19T17:55:01;19.00;99.90
20155;DHT22;10238;49.556;10.956;2022-08-19T17:57:53;19.00;99.90
20155;DHT22;10238;49.556;10.956;2022-08-19T18:00:43;19.00;99.90
20155;DHT22;10238;49.556;10.956;2022-08-19T18:03:41;19.00;99.90